Time;durP1;ratioP1;P1;durP2;ratioP2;P2;SDS_P1;SDS_P2;PMS_P1;PMS_P2;Temp;Humidity;BMP_temperature;BMP_pressure;BME280_temperature;BME280_humidity;BME280_pressure;Samples;Min_cycle;Max_cycle;Signal;HPM_P1;HPM_P2
2022/09/18 00:01:13;;;;;;;;;;;15.20;54.60;;;;;;5089820;28;19920;-88
2022/09/18 00:03:39;;;;;;;;;;;15.20;54.70;;;;;;5093106;28;19998;-88
2022/09/18 00:06:15;;;;;;;;;;;15.30;54.50;;;;;;5092938;28;20014;-88
2022/09/18 00:08:42;;;;;;;;;;;15.30;54.40;;;;;;5094789;28;19970;-86
2022/09/18 00:11:09;;;;;;;;;;;15.30;54.40;;;;;;5096568;28;19926;-88
2022/09/18 00:13:35;;;;;;;;;;;15.30;54.30;;;;;;5092432;28;19912;-87
2022/09/18 00:16:01;;;;;;;;;;;15.30;54.20;;;;;;5092799;28;19923;-88
2022/09/18 00:18:27;;;;;;;;;;;15.20;54.20;;;;;;5096274;28;19912;-90
2022/09/18 00:20:52;;;;;;;;;;;15.20;54.10;;;;;;5094676;28;19916;-90
2022/09/18 00:23:18;;;;;;;;;;;15.10;54.10;;;;;;5096127;28;19955;-90
2022/09/18 00:25:43;;;;;;;;;;;15.00;54.30;;;;;;5094530;28;19962;-88
2022/09/18 00:28:09;;;;;;;;;;;14.90;54.20;;;;;;5092791;28;19963;-87
2022/09/18 00:30:34;;;;;;;;;;;14.80;54.30;;;;;;5092960;28;19916;-88
2022/09/18 00:32:59;;;;;;;;;;;14.80;54.40;;;;;;5091994;28;19916;-89
2022/09/18 00:35:25;;;;;;;;;;;14.70;54.40;;;;;;5092119;28;19919;-86
2022/09/18 00:37:51;;;;;;;;;;;14.70;54.40;;;;;;5094469;28;19934;-88
2022/09/18 00:40:16;;;;;;;;;;;14.60;54.50;;;;;;5093184;28;19969;-88
2022/09/18 00:42:42;;;;;;;;;;;14.60;54.70;;;;;;5091887;28;19923;-91
2022/09/18 00:45:09;;;;;;;;;;;14.60;54.90;;;;;;5092229;28;19920;-85
2022/09/18 00:47:43;;;;;;;;;;;14.60;54.90;;;;;;5092614;28;19999;-85
2022/09/18 00:50:11;;;;;;;;;;;14.60;55.10;;;;;;5092840;28;20381;-85
2022/09/18 00:52:56;;;;;;;;;;;14.60;55.30;;;;;;5092545;28;20002;-91
2022/09/18 00:55:32;;;;;;;;;;;14.60;55.20;;;;;;5092490;28;19935;-87
2022/09/18 00:58:00;;;;;;;;;;;14.60;55.10;;;;;;5093261;28;20010;-90
2022/09/18 01:00:26;;;;;;;;;;;14.60;55.40;;;;;;5094271;28;20379;-88
2022/09/18 01:02:52;;;;;;;;;;;14.60;55.40;;;;;;5093597;28;19920;-88
2022/09/18 01:05:25;;;;;;;;;;;14.60;55.40;;;;;;5092327;28;19966;-87
2022/09/18 01:07:53;;;;;;;;;;;14.60;55.50;;;;;;5094363;28;19919;-90
2022/09/18 01:10:35;;;;;;;;;;;14.70;55.40;;;;;;5092750;28;19912;-88
2022/09/18 01:13:08;;;;;;;;;;;14.70;55.40;;;;;;5091851;28;20584;-92
2022/09/18 01:15:43;;;;;;;;;;;14.60;55.50;;;;;;5092918;28;19922;-86
2022/09/18 01:18:27;;;;;;;;;;;14.60;55.40;;;;;;5090629;28;19966;-88
2022/09/18 01:20:58;;;;;;;;;;;14.60;55.50;;;;;;5093507;28;20287;-86
2022/09/18 01:23:35;;;;;;;;;;;14.50;55.50;;;;;;5092225;28;19912;-86
2022/09/18 01:26:00;;;;;;;;;;;14.50;55.40;;;;;;5095294;28;20316;-90
2022/09/18 01:28:47;;;;;;;;;;;14.50;55.70;;;;;;5091093;28;20305;-88
2022/09/18 01:31:17;;;;;;;;;;;14.50;55.90;;;;;;5094665;28;19946;-87
2022/09/18 01:33:42;;;;;;;;;;;14.50;55.80;;;;;;5092397;28;19927;-87
2022/09/18 01:36:12;;;;;;;;;;;14.50;55.80;;;;;;5092921;28;19916;-88
2022/09/18 01:38:42;;;;;;;;;;;14.60;55.70;;;;;;5091241;28;20343;-91
2022/09/18 01:41:10;;;;;;;;;;;14.60;55.80;;;;;;5093059;28;19916;-88
2022/09/18 01:43:37;;;;;;;;;;;14.70;55.80;;;;;;5091531;28;20030;-87
2022/09/18 01:46:14;;;;;;;;;;;14.60;56.00;;;;;;5092272;28;19947;-88
2022/09/18 01:48:49;;;;;;;;;;;14.60;56.20;;;;;;5090875;28;19999;-88
2022/09/18 01:51:35;;;;;;;;;;;14.60;56.30;;;;;;5090638;28;19917;-86
2022/09/18 01:54:03;;;;;;;;;;;14.60;56.40;;;;;;5091385;28;19921;-90
2022/09/18 01:56:42;;;;;;;;;;;14.70;56.60;;;;;;5091657;28;19919;-92
2022/09/18 01:59:10;;;;;;;;;;;14.70;56.70;;;;;;5094412;28;19918;-85
2022/09/18 02:01:37;;;;;;;;;;;14.80;56.70;;;;;;5095418;28;20694;-88
2022/09/18 02:04:07;;;;;;;;;;;14.80;56.60;;;;;;5098710;28;19912;-90
2022/09/18 02:06:53;;;;;;;;;;;14.80;56.40;;;;;;5094439;28;20321;-85
2022/09/18 02:09:19;;;;;;;;;;;14.70;56.40;;;;;;5093138;28;19953;-89
2022/09/18 02:11:47;;;;;;;;;;;14.70;56.40;;;;;;5097037;28;19913;-91
2022/09/18 02:14:15;;;;;;;;;;;14.70;56.40;;;;;;5094874;28;19915;-87
2022/09/18 02:16:40;;;;;;;;;;;14.70;56.40;;;;;;5090503;28;19912;-85
2022/09/18 02:19:17;;;;;;;;;;;14.70;56.40;;;;;;5076434;28;19913;-90
2022/09/18 02:21:44;;;;;;;;;;;14.60;56.80;;;;;;5074260;28;20365;-86
2022/09/18 02:24:11;;;;;;;;;;;14.60;56.90;;;;;;5073391;28;19963;-91
2022/09/18 02:26:41;;;;;;;;;;;14.70;57.00;;;;;;5073157;28;20371;-85
2022/09/18 02:29:08;;;;;;;;;;;14.70;57.00;;;;;;5073853;28;19926;-87
2022/09/18 02:31:36;;;;;;;;;;;14.70;56.90;;;;;;5073391;28;19955;-86
2022/09/18 02:34:01;;;;;;;;;;;14.70;57.20;;;;;;5076002;28;19916;-86
2022/09/18 02:36:46;;;;;;;;;;;14.70;57.20;;;;;;5075799;28;19920;-87
2022/09/18 02:39:14;;;;;;;;;;;14.70;57.00;;;;;;5074117;28;19919;-86
2022/09/18 02:41:50;;;;;;;;;;;14.70;57.30;;;;;;5073786;28;19946;-92
2022/09/18 02:44:24;;;;;;;;;;;14.70;57.30;;;;;;5074382;28;19977;-88
2022/09/18 02:47:16;;;;;;;;;;;14.70;57.30;;;;;;5072623;28;19919;-87
2022/09/18 02:49:57;;;;;;;;;;;14.80;57.30;;;;;;5072541;28;19974;-90
2022/09/18 02:52:28;;;;;;;;;;;14.80;57.50;;;;;;5073592;28;20313;-87
2022/09/18 02:54:56;;;;;;;;;;;14.80;57.60;;;;;;5074161;28;19917;-88
2022/09/18 02:57:33;;;;;;;;;;;14.80;57.50;;;;;;5074288;28;19925;-87
2022/09/18 03:00:00;;;;;;;;;;;14.80;57.40;;;;;;5073788;28;19931;-91
2022/09/18 03:02:25;;;;;;;;;;;14.80;57.30;;;;;;5074355;28;19928;-92
2022/09/18 03:04:51;;;;;;;;;;;14.80;57.40;;;;;;5073438;28;19915;-92
2022/09/18 03:07:17;;;;;;;;;;;14.80;57.40;;;;;;5076098;28;19921;-91
2022/09/18 03:09:43;;;;;;;;;;;14.70;57.40;;;;;;5075768;28;20326;-89
2022/09/18 03:12:08;;;;;;;;;;;14.80;57.60;;;;;;5073412;28;20451;-88
2022/09/18 03:14:34;;;;;;;;;;;14.70;57.70;;;;;;5073669;28;20409;-87
2022/09/18 03:17:00;;;;;;;;;;;14.80;57.90;;;;;;5076162;28;19917;-86
2022/09/18 03:19:25;;;;;;;;;;;14.80;58.00;;;;;;5074015;28;19943;-88
2022/09/18 03:21:51;;;;;;;;;;;15.00;58.30;;;;;;5072328;28;19924;-91
2022/09/18 03:24:18;;;;;;;;;;;15.10;58.20;;;;;;5072149;28;19916;-91
2022/09/18 03:26:44;;;;;;;;;;;15.20;58.20;;;;;;5072759;28;19913;-89
2022/09/18 03:29:10;;;;;;;;;;;15.30;58.10;;;;;;5072103;28;19934;-86
2022/09/18 03:31:35;;;;;;;;;;;15.30;58.20;;;;;;5073183;28;19959;-89
2022/09/18 03:34:01;;;;;;;;;;;15.40;58.20;;;;;;5072818;28;19917;-88
2022/09/18 03:36:26;;;;;;;;;;;15.40;58.40;;;;;;5073440;28;19916;-87
2022/09/18 03:38:52;;;;;;;;;;;15.40;58.50;;;;;;5074336;28;19908;-91
2022/09/18 03:41:17;;;;;;;;;;;15.50;58.60;;;;;;5074388;28;20382;-87
2022/09/18 03:43:43;;;;;;;;;;;15.50;58.60;;;;;;5073503;28;19908;-88
2022/09/18 03:46:08;;;;;;;;;;;15.50;58.60;;;;;;5073922;28;19916;-89
2022/09/18 03:48:34;;;;;;;;;;;15.50;58.60;;;;;;5072856;28;19916;-89
2022/09/18 03:51:00;;;;;;;;;;;15.50;58.70;;;;;;5077130;28;19914;-92
2022/09/18 03:53:25;;;;;;;;;;;15.50;58.70;;;;;;5072426;28;19928;-86
2022/09/18 03:55:51;;;;;;;;;;;15.60;58.70;;;;;;5074829;28;19976;-86
2022/09/18 03:58:16;;;;;;;;;;;15.60;58.60;;;;;;5071597;28;19924;-90
2022/09/18 04:00:42;;;;;;;;;;;15.70;58.60;;;;;;5075428;28;19976;-86
2022/09/18 04:03:07;;;;;;;;;;;15.70;58.60;;;;;;5075759;28;20426;-86
2022/09/18 04:05:33;;;;;;;;;;;15.70;58.40;;;;;;5072860;28;19916;-91
2022/09/18 04:07:59;;;;;;;;;;;15.70;58.30;;;;;;5071070;28;20324;-88
2022/09/18 04:10:25;;;;;;;;;;;15.80;58.20;;;;;;5072897;28;19915;-86
2022/09/18 04:12:51;;;;;;;;;;;15.70;58.00;;;;;;5070809;28;19924;-88
2022/09/18 04:15:17;;;;;;;;;;;15.70;58.00;;;;;;5072797;28;19909;-89
2022/09/18 04:17:43;;;;;;;;;;;15.60;58.00;;;;;;5087105;28;20267;-86
2022/09/18 04:20:09;;;;;;;;;;;15.60;58.00;;;;;;5093035;28;20953;-85
2022/09/18 04:22:35;;;;;;;;;;;15.60;58.10;;;;;;5091028;28;19945;-88
2022/09/18 04:25:00;;;;;;;;;;;15.50;58.20;;;;;;5092069;28;19916;-85
2022/09/18 04:27:26;;;;;;;;;;;15.50;58.10;;;;;;5091366;28;19912;-92
2022/09/18 04:29:51;;;;;;;;;;;15.50;58.20;;;;;;5090585;28;20508;-89
2022/09/18 04:32:17;;;;;;;;;;;15.50;58.20;;;;;;5091877;28;19924;-91
2022/09/18 04:34:42;;;;;;;;;;;15.50;58.30;;;;;;5090945;28;19939;-86
2022/09/18 04:37:08;;;;;;;;;;;15.60;58.20;;;;;;5092728;28;19916;-88
2022/09/18 04:39:34;;;;;;;;;;;15.50;58.30;;;;;;5090413;28;20333;-85
2022/09/18 04:42:00;;;;;;;;;;;15.60;58.30;;;;;;5090390;28;19942;-90
2022/09/18 04:44:25;;;;;;;;;;;15.60;58.30;;;;;;5094957;28;19916;-92
2022/09/18 04:46:51;;;;;;;;;;;15.60;58.20;;;;;;5096914;28;19913;-91
2022/09/18 04:49:17;;;;;;;;;;;15.70;58.20;;;;;;5094283;28;19919;-89
2022/09/18 04:51:43;;;;;;;;;;;15.60;58.20;;;;;;5093476;28;19999;-88
2022/09/18 04:54:08;;;;;;;;;;;15.70;58.10;;;;;;5093227;28;19997;-89
2022/09/18 04:56:34;;;;;;;;;;;15.60;58.10;;;;;;5091668;28;19912;-87
2022/09/18 04:58:59;;;;;;;;;;;15.60;58.00;;;;;;5091030;28;21445;-88
2022/09/18 05:01:25;;;;;;;;;;;15.60;58.10;;;;;;5091495;28;19931;-87
2022/09/18 05:03:50;;;;;;;;;;;15.60;58.20;;;;;;5091258;28;19912;-90
2022/09/18 05:06:16;;;;;;;;;;;15.60;58.30;;;;;;5091922;28;19919;-88
2022/09/18 05:08:41;;;;;;;;;;;15.70;58.30;;;;;;5089592;28;19909;-91
2022/09/18 05:11:07;;;;;;;;;;;15.70;58.40;;;;;;5093203;28;19998;-91
2022/09/18 05:13:32;;;;;;;;;;;15.80;58.40;;;;;;5091292;28;20578;-88
2022/09/18 05:15:58;;;;;;;;;;;15.90;58.40;;;;;;5090088;28;19916;-85
2022/09/18 05:18:23;;;;;;;;;;;16.00;58.30;;;;;;5069943;28;19930;-88
2022/09/18 05:20:49;;;;;;;;;;;16.10;58.30;;;;;;5071765;28;20396;-88
2022/09/18 05:23:14;;;;;;;;;;;16.20;58.30;;;;;;5069645;28;20050;-91
2022/09/18 05:25:43;;;;;;;;;;;16.30;58.10;;;;;;5073175;28;20007;-89
2022/09/18 05:28:10;;;;;;;;;;;16.40;58.10;;;;;;5070975;28;19916;-88
2022/09/18 05:30:36;;;;;;;;;;;16.50;58.10;;;;;;5070396;28;19916;-87
2022/09/18 05:33:08;;;;;;;;;;;16.70;58.20;;;;;;5070712;28;19969;-88
2022/09/18 05:35:34;;;;;;;;;;;16.80;58.00;;;;;;5070837;28;19935;-88
2022/09/18 05:38:00;;;;;;;;;;;16.90;57.60;;;;;;5072186;28;19919;-88
2022/09/18 05:40:29;;;;;;;;;;;17.00;57.40;;;;;;5069852;28;19917;-89
2022/09/18 05:42:55;;;;;;;;;;;17.00;57.10;;;;;;5070346;28;19932;-91
2022/09/18 05:45:21;;;;;;;;;;;17.10;56.90;;;;;;5071881;28;19912;-86
2022/09/18 05:48:00;;;;;;;;;;;17.10;56.70;;;;;;5069660;28;19912;-88
2022/09/18 05:50:27;;;;;;;;;;;17.20;56.60;;;;;;5073792;28;20377;-88
2022/09/18 05:53:03;;;;;;;;;;;17.10;56.70;;;;;;5069474;28;19936;-89
2022/09/18 05:55:29;;;;;;;;;;;17.00;56.90;;;;;;5072803;28;20057;-90
2022/09/18 05:57:55;;;;;;;;;;;16.90;57.20;;;;;;5076875;28;19958;-88
2022/09/18 06:00:21;;;;;;;;;;;16.90;57.40;;;;;;5075102;28;19924;-89
2022/09/18 06:02:57;;;;;;;;;;;16.80;57.60;;;;;;5068871;28;19928;-92
2022/09/18 06:05:23;;;;;;;;;;;16.80;57.90;;;;;;5069358;28;19917;-90
2022/09/18 06:07:49;;;;;;;;;;;16.70;58.90;;;;;;5069386;28;20374;-86
2022/09/18 06:10:15;;;;;;;;;;;16.70;59.50;;;;;;5070547;28;19912;-88
2022/09/18 06:12:40;;;;;;;;;;;16.70;60.10;;;;;;5070506;28;19920;-86
2022/09/18 06:15:06;;;;;;;;;;;16.60;60.50;;;;;;5070876;28;19913;-85
2022/09/18 06:17:32;;;;;;;;;;;16.60;60.90;;;;;;5070504;28;19912;-86
2022/09/18 06:19:58;;;;;;;;;;;16.60;61.30;;;;;;5071048;28;20355;-86
2022/09/18 06:22:24;;;;;;;;;;;16.60;61.60;;;;;;5069063;28;19931;-87
2022/09/18 06:24:50;;;;;;;;;;;16.60;61.80;;;;;;5069576;28;19922;-88
2022/09/18 06:27:15;;;;;;;;;;;16.60;62.00;;;;;;5070638;28;19920;-89
2022/09/18 06:29:40;;;;;;;;;;;16.60;62.20;;;;;;5070359;28;19909;-89
2022/09/18 06:32:06;;;;;;;;;;;16.60;62.40;;;;;;5069922;28;19916;-85
2022/09/18 06:34:31;;;;;;;;;;;16.60;62.50;;;;;;5069977;28;19908;-89
2022/09/18 06:36:57;;;;;;;;;;;16.60;62.60;;;;;;5070166;28;20002;-86
2022/09/18 06:39:22;;;;;;;;;;;16.70;62.80;;;;;;5070139;28;19927;-85
2022/09/18 06:41:48;;;;;;;;;;;16.70;62.90;;;;;;5070113;28;20290;-85
2022/09/18 06:44:14;;;;;;;;;;;16.80;62.90;;;;;;5068713;28;19908;-88
2022/09/18 06:46:39;;;;;;;;;;;16.80;62.90;;;;;;5073140;28;19921;-84
2022/09/18 06:49:05;;;;;;;;;;;17.00;63.00;;;;;;5073117;28;19909;-88
2022/09/18 06:51:30;;;;;;;;;;;17.00;63.10;;;;;;5073449;28;19962;-88
2022/09/18 06:53:56;;;;;;;;;;;17.10;63.00;;;;;;5072034;28;20271;-87
2022/09/18 06:56:21;;;;;;;;;;;17.20;63.00;;;;;;5073180;28;19978;-83
2022/09/18 06:58:47;;;;;;;;;;;17.20;63.10;;;;;;5072036;28;19990;-88
2022/09/18 07:01:12;;;;;;;;;;;17.30;63.10;;;;;;5073111;28;19963;-88
2022/09/18 07:03:38;;;;;;;;;;;17.40;63.30;;;;;;5071944;28;19909;-88
2022/09/18 07:06:03;;;;;;;;;;;17.50;63.10;;;;;;5072498;28;20259;-85
2022/09/18 07:08:29;;;;;;;;;;;17.60;63.00;;;;;;5071679;28;19921;-88
2022/09/18 07:10:59;;;;;;;;;;;17.60;63.10;;;;;;5075139;28;19917;-89
2022/09/18 07:13:24;;;;;;;;;;;17.70;63.10;;;;;;5082607;28;19919;-85
2022/09/18 07:15:49;;;;;;;;;;;17.80;63.10;;;;;;5082371;28;20263;-86
2022/09/18 07:18:15;;;;;;;;;;;17.80;63.00;;;;;;5086633;28;19916;-86
2022/09/18 07:20:40;;;;;;;;;;;17.80;63.00;;;;;;5081589;28;19928;-89
2022/09/18 07:23:06;;;;;;;;;;;17.90;62.90;;;;;;5083422;28;20312;-87
2022/09/18 07:25:33;;;;;;;;;;;18.00;62.90;;;;;;5083929;28;19913;-90
2022/09/18 07:28:06;;;;;;;;;;;18.10;62.90;;;;;;5077032;28;19959;-87
2022/09/18 07:30:32;;;;;;;;;;;18.20;63.10;;;;;;5073753;28;19913;-84
2022/09/18 07:32:59;;;;;;;;;;;18.30;63.20;;;;;;5072580;28;19912;-90
2022/09/18 07:35:25;;;;;;;;;;;18.40;63.30;;;;;;5074392;28;20532;-86
2022/09/18 07:37:50;;;;;;;;;;;18.50;63.30;;;;;;5070905;28;19939;-85
2022/09/18 07:40:16;;;;;;;;;;;18.70;63.20;;;;;;5072670;28;19912;-86
2022/09/18 07:42:41;;;;;;;;;;;18.80;63.00;;;;;;5100746;28;19965;-87
2022/09/18 07:45:07;;;;;;;;;;;18.90;63.00;;;;;;5114119;28;19919;-85
2022/09/18 07:47:33;;;;;;;;;;;19.00;62.70;;;;;;5088270;28;19912;-87
2022/09/18 07:49:58;;;;;;;;;;;19.10;62.60;;;;;;5093639;28;19912;-92
2022/09/18 07:52:24;;;;;;;;;;;19.10;62.60;;;;;;5105755;28;19912;-85
2022/09/18 07:54:50;;;;;;;;;;;19.20;62.60;;;;;;5113230;28;19951;-87
2022/09/18 07:57:15;;;;;;;;;;;19.30;62.60;;;;;;5100556;28;19915;-88
2022/09/18 07:59:41;;;;;;;;;;;19.40;62.60;;;;;;5112590;28;19912;-85
2022/09/18 08:02:07;;;;;;;;;;;19.40;62.30;;;;;;5112106;28;20004;-87
2022/09/18 08:04:32;;;;;;;;;;;19.40;62.30;;;;;;5112270;28;19935;-90
2022/09/18 08:07:03;;;;;;;;;;;19.50;62.50;;;;;;5091741;28;19912;-85
2022/09/18 08:09:28;;;;;;;;;;;19.50;62.50;;;;;;5091931;28;20529;-89
2022/09/18 08:11:54;;;;;;;;;;;19.30;61.70;;;;;;5099792;28;19916;-85
2022/09/18 08:14:19;;;;;;;;;;;19.20;61.70;;;;;;5112297;28;19912;-84
2022/09/18 08:16:45;;;;;;;;;;;19.20;61.90;;;;;;5091228;28;19963;-84
2022/09/18 08:19:11;;;;;;;;;;;19.10;62.00;;;;;;5091567;28;19916;-88
2022/09/18 08:21:37;;;;;;;;;;;19.00;62.20;;;;;;5080857;28;20402;-85
2022/09/18 08:24:03;;;;;;;;;;;18.90;62.40;;;;;;5086713;28;19919;-87
2022/09/18 08:26:28;;;;;;;;;;;18.80;62.60;;;;;;5086706;28;20522;-85
2022/09/18 08:28:53;;;;;;;;;;;18.70;62.60;;;;;;5081195;28;19947;-84
2022/09/18 08:31:19;;;;;;;;;;;18.60;62.60;;;;;;5079392;28;19927;-87
2022/09/18 08:33:44;;;;;;;;;;;18.60;63.00;;;;;;5072430;28;19912;-84
2022/09/18 08:36:10;;;;;;;;;;;18.50;62.90;;;;;;5086303;28;19916;-88
2022/09/18 08:38:35;;;;;;;;;;;18.40;63.30;;;;;;5091834;28;19933;-87
2022/09/18 08:41:17;;;;;;;;;;;18.40;63.50;;;;;;5107086;28;20374;-87
2022/09/18 08:43:49;;;;;;;;;;;18.40;63.70;;;;;;5096876;28;19935;-84
2022/09/18 08:46:17;;;;;;;;;;;18.40;63.90;;;;;;5094253;28;20441;-88
2022/09/18 08:48:55;;;;;;;;;;;18.30;64.00;;;;;;5092489;28;19911;-84
2022/09/18 08:51:23;;;;;;;;;;;18.30;64.10;;;;;;5108116;28;19920;-85
2022/09/18 08:53:53;;;;;;;;;;;18.30;64.30;;;;;;5108222;28;20014;-86
2022/09/18 08:56:21;;;;;;;;;;;18.30;64.20;;;;;;5095184;28;19920;-84
2022/09/18 08:58:50;;;;;;;;;;;18.30;64.10;;;;;;5086295;28;19912;-85
2022/09/18 09:01:17;;;;;;;;;;;18.20;64.00;;;;;;5084533;28;19985;-85
2022/09/18 09:04:15;;;;;;;;;;;18.20;64.20;;;;;;5092182;28;19922;-88
2022/09/18 09:06:58;;;;;;;;;;;18.20;64.10;;;;;;5071252;28;20049;-85
2022/09/18 09:09:29;;;;;;;;;;;18.10;64.10;;;;;;5085924;28;19960;-85
2022/09/18 09:12:12;;;;;;;;;;;18.10;64.40;;;;;;5088335;28;19916;-85
2022/09/18 09:14:37;;;;;;;;;;;18.00;64.20;;;;;;5098616;28;19912;-88
2022/09/18 09:17:11;;;;;;;;;;;18.00;64.40;;;;;;5086684;28;19923;-86
2022/09/18 09:19:40;;;;;;;;;;;17.90;64.60;;;;;;5098862;28;19916;-87
2022/09/18 09:22:16;;;;;;;;;;;18.00;64.50;;;;;;5104962;28;19928;-88
2022/09/18 09:24:45;;;;;;;;;;;18.00;64.70;;;;;;5098623;28;19916;-86
2022/09/18 09:27:26;;;;;;;;;;;18.00;65.00;;;;;;5086355;28;19916;-88
2022/09/18 09:29:58;;;;;;;;;;;18.00;64.90;;;;;;5087915;28;20023;-86
2022/09/18 09:32:30;;;;;;;;;;;18.00;64.80;;;;;;5081203;28;19921;-88
2022/09/18 09:35:16;;;;;;;;;;;18.10;64.90;;;;;;5095578;28;20081;-86
2022/09/18 09:37:44;;;;;;;;;;;18.10;64.70;;;;;;5084104;28;19923;-88
2022/09/18 09:40:31;;;;;;;;;;;18.00;64.60;;;;;;5085828;28;19917;-88
2022/09/18 09:43:04;;;;;;;;;;;18.10;64.70;;;;;;5085143;28;19930;-85
2022/09/18 09:45:37;;;;;;;;;;;18.00;64.90;;;;;;5078997;28;19970;-87
2022/09/18 09:48:06;;;;;;;;;;;18.10;64.80;;;;;;5076560;28;19923;-88
2022/09/18 09:50:52;;;;;;;;;;;18.10;64.90;;;;;;5081156;28;19959;-86
2022/09/18 09:53:18;;;;;;;;;;;18.10;64.90;;;;;;5075949;28;20466;-85
2022/09/18 09:55:49;;;;;;;;;;;18.20;64.80;;;;;;5087203;28;19916;-85
2022/09/18 09:58:24;;;;;;;;;;;18.20;64.80;;;;;;5085661;28;20363;-86
2022/09/18 10:00:55;;;;;;;;;;;18.20;64.90;;;;;;5087732;28;20003;-88
2022/09/18 10:03:24;;;;;;;;;;;18.30;65.00;;;;;;5086126;28;19944;-85
2022/09/18 10:05:55;;;;;;;;;;;18.30;65.10;;;;;;5080115;28;19916;-85
2022/09/18 10:08:26;;;;;;;;;;;18.30;65.00;;;;;;5074362;28;19934;-89
2022/09/18 10:10:56;;;;;;;;;;;18.30;65.00;;;;;;5086328;28;19918;-86
2022/09/18 10:13:28;;;;;;;;;;;18.40;64.80;;;;;;5086202;28;19916;-89
2022/09/18 10:16:05;;;;;;;;;;;18.40;65.00;;;;;;5087885;28;19917;-86
2022/09/18 10:18:31;;;;;;;;;;;18.40;65.10;;;;;;5086979;28;19920;-89
2022/09/18 10:21:11;;;;;;;;;;;18.50;65.00;;;;;;5089955;28;20381;-85
2022/09/18 10:23:38;;;;;;;;;;;18.50;64.70;;;;;;5085326;28;19935;-85
2022/09/18 10:26:03;;;;;;;;;;;18.50;64.80;;;;;;5070694;28;19912;-85
2022/09/18 10:28:29;;;;;;;;;;;18.50;65.00;;;;;;5072060;28;19916;-89
2022/09/18 10:31:05;;;;;;;;;;;18.50;64.90;;;;;;5069538;28;19912;-89
2022/09/18 10:33:32;;;;;;;;;;;18.50;65.10;;;;;;5069405;28;19921;-85
2022/09/18 10:36:16;;;;;;;;;;;18.60;65.40;;;;;;5070525;28;20597;-87
2022/09/18 10:38:42;;;;;;;;;;;18.70;65.60;;;;;;5072899;28;19997;-84
2022/09/18 10:41:28;;;;;;;;;;;18.80;65.30;;;;;;5071180;28;20061;-86
2022/09/18 10:43:56;;;;;;;;;;;18.80;65.30;;;;;;5089356;28;19975;-88
2022/09/18 10:46:28;;;;;;;;;;;18.90;65.30;;;;;;5080519;28;19966;-88
2022/09/18 10:48:55;;;;;;;;;;;19.00;65.40;;;;;;5088288;28;19981;-89
2022/09/18 10:51:24;;;;;;;;;;;19.10;65.60;;;;;;5081951;28;19920;-89
2022/09/18 10:54:04;;;;;;;;;;;19.20;65.20;;;;;;5089476;28;19955;-88
2022/09/18 10:56:29;;;;;;;;;;;19.20;65.20;;;;;;5092479;28;19923;-89
2022/09/18 10:58:56;;;;;;;;;;;19.20;64.90;;;;;;5108867;28;20000;-88
2022/09/18 11:01:23;;;;;;;;;;;19.20;64.80;;;;;;5097426;28;19919;-89
2022/09/18 11:03:57;;;;;;;;;;;19.10;64.90;;;;;;5110978;28;19995;-89
2022/09/18 11:06:24;;;;;;;;;;;19.10;64.80;;;;;;5100817;28;19922;-89
2022/09/18 11:08:51;;;;;;;;;;;19.10;65.10;;;;;;5101707;28;20660;-88
2022/09/18 11:11:25;;;;;;;;;;;19.00;64.70;;;;;;5093504;28;20276;-89
2022/09/18 11:13:55;;;;;;;;;;;18.90;64.40;;;;;;5110550;28;19935;-88
2022/09/18 11:16:21;;;;;;;;;;;18.80;64.20;;;;;;5086305;28;19919;-85
2022/09/18 11:18:58;;;;;;;;;;;18.80;64.30;;;;;;5088124;28;19923;-85
2022/09/18 11:21:24;;;;;;;;;;;18.70;64.50;;;;;;5090151;28;20373;-87
2022/09/18 11:24:00;;;;;;;;;;;18.70;64.80;;;;;;5094880;28;19916;-86
2022/09/18 11:26:26;;;;;;;;;;;18.70;65.00;;;;;;5086902;28;19920;-86
2022/09/18 11:29:03;;;;;;;;;;;18.70;64.80;;;;;;5108555;28;19922;-85
2022/09/18 11:31:44;;;;;;;;;;;18.70;64.60;;;;;;5109630;28;19919;-85
2022/09/18 11:34:27;;;;;;;;;;;18.50;64.60;;;;;;5095360;28;20499;-89
2022/09/18 11:36:55;;;;;;;;;;;18.50;64.50;;;;;;5065905;28;19924;-87
2022/09/18 11:39:23;;;;;;;;;;;18.40;64.60;;;;;;5081165;28;19924;-86
2022/09/18 11:41:50;;;;;;;;;;;18.30;64.30;;;;;;5079044;28;19924;-86
2022/09/18 11:44:15;;;;;;;;;;;18.30;64.20;;;;;;5088108;28;19924;-85
2022/09/18 11:46:41;;;;;;;;;;;18.20;64.10;;;;;;5080263;28;19917;-90
2022/09/18 11:49:10;;;;;;;;;;;18.10;63.80;;;;;;5083916;28;19981;-87
2022/09/18 11:51:43;;;;;;;;;;;17.90;64.00;;;;;;5083547;28;19924;-87
2022/09/18 11:54:13;;;;;;;;;;;17.90;64.00;;;;;;5090027;28;19915;-89
2022/09/18 11:56:43;;;;;;;;;;;17.80;64.20;;;;;;5088861;28;19919;-87
2022/09/18 11:59:13;;;;;;;;;;;17.80;64.10;;;;;;5080387;28;19926;-89
2022/09/18 12:01:44;;;;;;;;;;;17.70;64.40;;;;;;5087893;28;20379;-89
2022/09/18 12:04:20;;;;;;;;;;;17.70;64.40;;;;;;5084209;28;20420;-89
2022/09/18 12:07:01;;;;;;;;;;;17.70;64.50;;;;;;5086262;28;19921;-86
2022/09/18 12:09:26;;;;;;;;;;;17.70;64.80;;;;;;5083953;28;19924;-85
2022/09/18 12:12:14;;;;;;;;;;;17.70;64.80;;;;;;5087219;28;19970;-87
2022/09/18 12:14:46;;;;;;;;;;;17.70;65.00;;;;;;5069680;28;19916;-87
2022/09/18 12:17:11;;;;;;;;;;;17.70;65.00;;;;;;5069105;28;19916;-87
2022/09/18 12:19:41;;;;;;;;;;;17.70;64.80;;;;;;5077901;28;19989;-86
2022/09/18 12:22:15;;;;;;;;;;;17.70;65.00;;;;;;5079324;28;19950;-86
2022/09/18 12:24:41;;;;;;;;;;;17.70;64.80;;;;;;5069862;28;19916;-87
2022/09/18 12:27:29;;;;;;;;;;;17.80;64.80;;;;;;5075118;28;19965;-86
2022/09/18 12:29:58;;;;;;;;;;;17.80;64.60;;;;;;5064139;28;19938;-88
2022/09/18 12:32:28;;;;;;;;;;;17.90;64.40;;;;;;5069781;28;20463;-86
2022/09/18 12:34:58;;;;;;;;;;;17.90;64.40;;;;;;5085573;28;19966;-88
2022/09/18 12:37:31;;;;;;;;;;;17.90;64.30;;;;;;5089220;28;20595;-87
2022/09/18 12:39:57;;;;;;;;;;;17.90;64.50;;;;;;5082958;28;20010;-89
2022/09/18 12:42:51;;;;;;;;;;;18.00;64.60;;;;;;5080264;28;20383;-90
2022/09/18 12:45:26;;;;;;;;;;;18.00;64.80;;;;;;5072944;28;19927;-89
2022/09/18 12:48:04;;;;;;;;;;;18.10;64.90;;;;;;5069395;28;19913;-89
2022/09/18 12:50:29;;;;;;;;;;;18.30;65.00;;;;;;5069314;28;19916;-86
2022/09/18 12:53:09;;;;;;;;;;;18.30;65.00;;;;;;5068684;28;19927;-89
2022/09/18 12:55:50;;;;;;;;;;;18.50;65.00;;;;;;5069295;28;19962;-87
2022/09/18 12:58:34;;;;;;;;;;;18.60;64.90;;;;;;5069373;28;20290;-87
2022/09/18 13:01:02;;;;;;;;;;;18.70;64.80;;;;;;5069077;28;20536;-89
2022/09/18 13:03:35;;;;;;;;;;;18.70;64.50;;;;;;5067170;28;20095;-91
2022/09/18 13:06:05;;;;;;;;;;;18.80;64.10;;;;;;5067124;28;19916;-89
2022/09/18 13:08:54;;;;;;;;;;;18.80;64.00;;;;;;5068288;28;19923;-89
2022/09/18 13:11:36;;;;;;;;;;;18.80;64.10;;;;;;5067459;28;19916;-89
2022/09/18 13:14:12;;;;;;;;;;;18.80;64.00;;;;;;5067807;28;19959;-90
2022/09/18 13:16:46;;;;;;;;;;;18.80;63.80;;;;;;5069712;28;19959;-89
2022/09/18 13:19:20;;;;;;;;;;;18.80;63.60;;;;;;5069198;28;20379;-89
2022/09/18 13:21:46;;;;;;;;;;;18.80;63.70;;;;;;5070673;28;19939;-86
2022/09/18 13:24:16;;;;;;;;;;;18.80;63.60;;;;;;5068490;28;19916;-86
2022/09/18 13:26:44;;;;;;;;;;;18.80;63.90;;;;;;5069026;28;20562;-85
2022/09/18 13:29:28;;;;;;;;;;;18.80;63.50;;;;;;5070372;28;19978;-90
2022/09/18 13:31:54;;;;;;;;;;;18.80;63.60;;;;;;5069042;28;20209;-91
2022/09/18 13:34:21;;;;;;;;;;;18.80;63.80;;;;;;5050865;28;20430;-86
2022/09/18 13:36:46;;;;;;;;;;;18.80;63.50;;;;;;5071590;28;19923;-90
2022/09/18 13:39:23;;;;;;;;;;;18.80;63.50;;;;;;5084589;28;19916;-85
2022/09/18 13:41:50;;;;;;;;;;;18.90;63.60;;;;;;5078329;28;20350;-86
2022/09/18 13:44:29;;;;;;;;;;;18.90;63.60;;;;;;5085342;28;19929;-88
2022/09/18 13:47:07;;;;;;;;;;;19.00;63.70;;;;;;5080406;28;19920;-90
2022/09/18 13:49:40;;;;;;;;;;;19.00;63.60;;;;;;5066761;28;19916;-87
2022/09/18 13:52:24;;;;;;;;;;;19.10;63.60;;;;;;5084446;28;19920;-88
2022/09/18 13:55:09;;;;;;;;;;;19.10;63.70;;;;;;5091889;28;19916;-84
2022/09/18 13:57:34;;;;;;;;;;;19.20;63.50;;;;;;5091012;28;19916;-91
2022/09/18 14:00:01;;;;;;;;;;;19.20;63.30;;;;;;5093527;28;19965;-87
2022/09/18 14:02:37;;;;;;;;;;;19.20;63.70;;;;;;5093136;28;19931;-91
2022/09/18 14:05:20;;;;;;;;;;;19.20;63.50;;;;;;5093364;28;19916;-87
2022/09/18 14:07:54;;;;;;;;;;;19.30;63.40;;;;;;5091377;28;20378;-85
2022/09/18 14:10:22;;;;;;;;;;;19.30;63.60;;;;;;5091241;28;19916;-91
2022/09/18 14:13:06;;;;;;;;;;;19.30;63.70;;;;;;5093336;28;19912;-89
2022/09/18 14:15:32;;;;;;;;;;;19.40;63.80;;;;;;5092931;28;20362;-90
2022/09/18 14:18:15;;;;;;;;;;;19.40;63.80;;;;;;5092133;28;19919;-89
2022/09/18 14:20:45;;;;;;;;;;;19.40;63.80;;;;;;5092995;28;20014;-87
2022/09/18 14:23:29;;;;;;;;;;;19.50;63.70;;;;;;5092329;28;19931;-89
2022/09/18 14:25:54;;;;;;;;;;;19.60;63.30;;;;;;5091450;28;19999;-86
2022/09/18 14:28:20;;;;;;;;;;;19.60;63.60;;;;;;5092173;28;20343;-92
2022/09/18 14:31:06;;;;;;;;;;;19.70;63.50;;;;;;5091426;28;20033;-90